Time;durP1;ratioP1;P1;durP2;ratioP2;P2;SDS_P1;SDS_P2;PMS_P1;PMS_P2;Temp;Humidity;BMP_temperature;BMP_pressure;BME280_temperature;BME280_humidity;BME280_pressure;Samples;Min_cycle;Max_cycle;Signal;HPM_P1;HPM_P2
2022/07/03 00:01:42;;;;;;;7.00;6.30;;;;;;;18.24;91.53;101404.95;1674954;83;25845;-82
2022/07/03 00:04:10;;;;;;;8.95;5.90;;;;;;;18.23;91.65;101408.73;1675486;83;25749;-83
2022/07/03 00:06:36;;;;;;;8.25;6.67;;;;;;;18.22;91.75;101399.47;1680931;85;25342;-82
2022/07/03 00:09:05;;;;;;;7.12;6.40;;;;;;;18.22;91.89;101402.17;1681091;83;28444;-82
2022/07/03 00:11:32;;;;;;;7.45;5.85;;;;;;;18.23;91.95;101402.47;1680856;84;26056;-82
2022/07/03 00:14:00;;;;;;;9.88;6.60;;;;;;;18.25;92.02;101399.01;1680636;83;25808;-82
2022/07/03 00:16:26;;;;;;;7.40;6.70;;;;;;;18.26;91.95;101402.85;1682402;84;26325;-82
2022/07/03 00:18:52;;;;;;;14.05;7.70;;;;;;;18.28;91.98;101401.30;1689745;83;25855;-82
2022/07/03 00:21:33;;;;;;;7.90;6.42;;;;;;;18.24;91.88;101400.88;1681104;85;27515;-82
2022/07/03 00:24:10;;;;;;;7.25;6.55;;;;;;;18.25;91.87;101404.44;1677148;83;25956;-80
2022/07/03 00:26:40;;;;;;;7.62;6.95;;;;;;;18.25;91.89;101404.44;1681589;85;25942;-81
2022/07/03 00:29:08;;;;;;;7.90;6.35;;;;;;;18.22;91.80;101403.53;1681638;83;26472;-82
2022/07/03 00:31:35;;;;;;;10.55;8.15;;;;;;;18.19;91.87;101398.02;1696181;82;25889;-82
2022/07/03 00:34:02;;;;;;;7.03;6.33;;;;;;;18.20;92.00;101396.95;1698517;82;27455;-82
2022/07/03 00:36:37;;;;;;;9.15;6.40;;;;;;;18.20;92.01;101401.53;1698852;82;25788;-83
2022/07/03 00:39:05;;;;;;;6.50;5.90;;;;;;;18.20;91.95;101398.82;1698925;84;25909;-82
2022/07/03 00:41:35;;;;;;;7.10;6.47;;;;;;;18.18;91.90;101393.63;1690860;84;25864;-82
2022/07/03 00:44:03;;;;;;;6.87;6.17;;;;;;;18.19;91.90;101389.87;1665090;84;25355;-82
2022/07/03 00:46:29;;;;;;;9.75;6.83;;;;;;;18.17;91.85;101383.00;1687959;84;27466;-82
2022/07/03 00:48:58;;;;;;;7.17;6.17;;;;;;;18.14;91.86;101385.62;1689348;83;25989;-81
2022/07/03 00:51:29;;;;;;;6.45;5.67;;;;;;;18.14;91.91;101385.62;1674118;84;25980;-82
2022/07/03 00:53:57;;;;;;;7.22;5.62;;;;;;;18.13;91.92;101384.48;1679576;85;26279;-82
2022/07/03 00:56:29;;;;;;;11.20;6.17;;;;;;;18.11;91.92;101375.19;1675849;84;25329;-82
2022/07/03 00:59:00;;;;;;;8.88;5.75;;;;;;;18.09;91.86;101381.36;1677182;85;27619;-82
2022/07/03 01:01:33;;;;;;;9.85;6.25;;;;;;;18.06;91.69;101379.09;1679665;83;25961;-82
2022/07/03 01:04:32;;;;;;;7.92;6.08;;;;;;;18.04;91.74;101379.00;1657054;85;25854;-82
2022/07/03 01:07:16;;;;;;;6.78;5.67;;;;;;;18.03;91.76;101369.19;1679528;85;25528;-82
2022/07/03 01:09:59;;;;;;;7.50;6.20;;;;;;;18.02;91.87;101368.90;1679308;85;26501;-81
2022/07/03 01:12:59;;;;;;;7.25;6.37;;;;;;;18.01;91.63;101372.64;1679105;84;27474;-82
2022/07/03 01:15:40;;;;;;;8.50;6.10;;;;;;;17.99;91.62;101366.61;1673905;85;25981;-82
2022/07/03 01:18:27;;;;;;;7.00;6.03;;;;;;;17.96;91.65;101357.58;1684697;85;27362;-82
2022/07/03 01:20:59;;;;;;;6.78;6.08;;;;;;;17.96;91.80;101360.28;1684794;85;25810;-82
2022/07/03 01:23:39;;;;;;;6.92;6.33;;;;;;;17.90;91.77;101355.19;1683474;84;26141;-82
2022/07/03 01:26:09;;;;;;;8.03;6.92;;;;;;;17.86;91.74;101347.70;1684409;83;27530;-82
2022/07/03 01:28:39;;;;;;;9.97;6.53;;;;;;;17.83;91.85;101350.86;1684852;84;25897;-82
2022/07/03 01:31:08;;;;;;;7.60;6.55;;;;;;;17.79;91.85;101344.20;1682786;85;25861;-83
2022/07/03 01:33:36;;;;;;;6.50;5.90;;;;;;;17.76;91.89;101356.31;1680963;85;25503;-80
2022/07/03 01:36:07;;;;;;;8.00;6.15;;;;;;;17.72;91.60;101351.02;1681278;83;25856;-81
2022/07/03 01:38:42;;;;;;;9.60;5.35;;;;;;;17.68;91.45;101347.88;1673454;84;27612;-81
2022/07/03 01:41:12;;;;;;;5.70;5.20;;;;;;;17.65;91.20;101353.75;1686291;84;25791;-80
2022/07/03 01:43:48;;;;;;;6.22;5.62;;;;;;;17.59;90.90;101349.19;1677683;85;25883;-81
2022/07/03 01:46:18;;;;;;;8.13;5.60;;;;;;;17.57;90.68;101347.73;1673797;84;25829;-81
2022/07/03 01:48:46;;;;;;;5.20;4.70;;;;;;;17.51;90.59;101345.89;1681540;85;25761;-81
2022/07/03 01:51:17;;;;;;;18.20;10.90;;;;;;;17.48;90.75;101343.05;1681364;85;28324;-81
2022/07/03 01:53:48;;;;;;;11.70;7.70;;;;;;;17.48;90.86;101352.53;1681499;85;25941;-81
2022/07/03 01:56:15;;;;;;;;;;;;;;;17.46;90.48;101349.20;1682676;83;25693;-81
2022/07/03 01:58:41;;;;;;;7.80;6.15;;;;;;;17.42;90.36;101342.55;1681305;85;26078;-81
2022/07/03 02:01:26;;;;;;;7.37;6.00;;;;;;;17.37;90.56;101339.64;1681512;85;26311;-81
2022/07/03 02:04:24;;;;;;;10.50;6.08;;;;;;;17.36;90.85;101342.57;1680858;84;27491;-81
2022/07/03 02:07:06;;;;;;;5.62;5.00;;;;;;;17.34;91.03;101339.25;1666907;84;25942;-81
2022/07/03 02:09:37;;;;;;;5.97;5.47;;;;;;;17.33;91.22;101341.11;1684965;84;25776;-81
2022/07/03 02:12:09;;;;;;;5.95;5.45;;;;;;;17.31;91.02;101338.30;1685539;84;25928;-82
2022/07/03 02:14:39;;;;;;;6.90;6.30;;;;;;;17.27;91.04;101340.62;1685790;84;25821;-82
2022/07/03 02:17:16;;;;;;;6.05;5.50;;;;;;;17.25;91.11;101337.80;1690698;84;27432;-80
2022/07/03 02:20:08;;;;;;;5.53;5.05;;;;;;;17.24;91.19;101337.48;1687621;83;25864;-81
2022/07/03 02:22:39;;;;;;;7.08;5.83;;;;;;;17.22;91.09;101339.57;1686887;84;26233;-81
2022/07/03 02:25:17;;;;;;;5.83;5.33;;;;;;;17.20;91.22;101345.20;1685293;84;26254;-81
2022/07/03 02:27:57;;;;;;;5.65;5.17;;;;;;;17.20;91.31;101341.66;1681422;85;25969;-81
2022/07/03 02:30:24;;;;;;;10.08;5.90;;;;;;;17.19;91.55;101337.30;1681739;83;27533;-80
2022/07/03 02:32:52;;;;;;;10.65;6.47;;;;;;;17.23;92.12;101335.84;1681192;85;25770;-81
2022/07/03 02:35:33;;;;;;;7.47;6.00;;;;;;;17.25;92.39;101343.22;1681069;85;26354;-81
2022/07/03 02:38:03;;;;;;;;;;;;;;;17.28;92.41;101346.88;1682282;85;26337;-81
2022/07/03 02:40:47;;;;;;;7.70;5.72;;;;;;;17.27;92.51;101346.03;1681238;85;25933;-81
2022/07/03 02:43:25;;;;;;;7.60;5.50;;;;;;;17.25;92.47;101344.58;1681567;85;28115;-81
2022/07/03 02:49:01;;;;;;;6.78;5.80;;;;;;;17.28;92.87;101352.29;1649279;85;26368;-80
2022/07/03 02:51:36;;;;;;;6.28;5.55;;;;;;;17.28;92.93;101343.62;1684961;84;25875;-80
2022/07/03 02:54:15;;;;;;;8.08;5.62;;;;;;;17.28;92.97;101335.49;1680797;85;25973;-82
2022/07/03 02:57:01;;;;;;;9.55;5.30;;;;;;;17.28;92.96;101336.84;1680476;85;27433;-81
2022/07/03 02:59:54;;;;;;;7.03;5.50;;;;;;;17.29;92.89;101341.23;1672639;84;25863;-81
2022/07/03 03:02:46;;;;;;;7.75;6.35;;;;;;;17.28;92.97;101339.55;1680600;85;25857;-81
2022/07/03 03:05:29;;;;;;;7.22;5.35;;;;;;;17.24;92.97;101337.48;1681130;84;25797;-81
2022/07/03 03:08:29;;;;;;;8.63;6.25;;;;;;;17.22;93.09;101336.34;1679798;85;26160;-81
2022/07/03 03:11:01;;;;;;;7.45;5.65;;;;;;;17.20;93.28;101341.66;1680155;85;27633;-81
2022/07/03 03:13:31;;;;;;;8.53;5.97;;;;;;;17.18;93.29;101337.82;1674134;85;25814;-81
2022/07/03 03:16:07;;;;;;;6.10;5.53;;;;;;;17.17;93.40;101338.84;1678752;85;25791;-80
2022/07/03 03:18:39;;;;;;;6.05;5.37;;;;;;;17.14;93.47;101330.33;1672867;85;25866;-81
2022/07/03 03:21:13;;;;;;;7.42;5.12;;;;;;;17.10;93.37;101328.58;1679055;85;25825;-80
2022/07/03 03:23:56;;;;;;;11.28;5.95;;;;;;;17.09;93.60;101334.19;1678776;85;27542;-81
2022/07/03 03:26:28;;;;;;;6.85;5.25;;;;;;;17.06;93.69;101326.50;1676992;85;32640;-80
2022/07/03 03:28:54;;;;;;;11.25;5.97;;;;;;;17.03;93.67;101320.98;1676396;84;25961;-81
2022/07/03 03:31:21;;;;;;;8.28;5.70;;;;;;;17.03;94.08;101320.98;1678525;85;25516;-82
2022/07/03 03:33:50;;;;;;;8.90;5.80;;;;;;;17.09;94.61;101322.00;1674972;85;26478;-82
2022/07/03 03:36:20;;;;;;;8.70;5.85;;;;;;;17.16;94.64;101324.18;1689516;84;27192;-82
2022/07/03 03:38:49;;;;;;;7.47;5.95;;;;;;;17.21;94.55;101321.16;1680768;84;26460;-82
2022/07/03 03:41:16;;;;;;;13.88;6.08;;;;;;;17.29;94.71;101328.20;1681283;83;25362;-81
2022/07/03 03:43:43;;;;;;;7.80;6.30;;;;;;;17.35;94.69;101320.06;1675128;83;25883;-82
2022/07/03 03:46:09;;;;;;;7.00;5.83;;;;;;;17.38;94.63;101327.78;1686869;83;25894;-81
2022/07/03 03:48:35;;;;;;;7.97;5.70;;;;;;;17.40;94.69;101318.91;1694543;83;27430;-82
2022/07/03 03:51:04;;;;;;;12.78;5.90;;;;;;;17.44;94.75;101324.20;1677222;83;25796;-82
2022/07/03 03:53:31;;;;;;;7.17;5.47;;;;;;;17.49;94.82;101328.98;1678092;84;25864;-82
2022/07/03 03:56:06;;;;;;;6.45;5.25;;;;;;;17.51;94.85;101330.98;1678247;84;25943;-82
2022/07/03 03:58:37;;;;;;;13.20;5.28;;;;;;;17.55;94.77;101333.58;1678209;84;25588;-82
2022/07/03 04:01:06;;;;;;;10.32;5.10;;;;;;;17.57;94.66;101323.36;1675025;84;27440;-82
2022/07/03 04:03:34;;;;;;;6.83;4.62;;;;;;;17.60;94.71;101330.52;1685065;84;25946;-82
2022/07/03 04:06:01;;;;;;;8.58;5.50;;;;;;;17.64;94.74;101330.39;1676620;84;25786;-82
2022/07/03 04:08:29;;;;;;;8.33;4.40;;;;;;;17.68;94.65;101324.84;1676146;85;26268;-80
2022/07/03 04:10:55;;;;;;;6.67;4.87;;;;;;;17.73;94.15;101331.53;1675658;84;26465;-80
2022/07/03 04:13:22;;;;;;;6.87;5.20;;;;;;;17.75;94.10;101326.72;1676404;85;28088;-80
2022/07/03 04:15:50;;;;;;;5.40;4.85;;;;;;;17.79;94.18;101315.75;1675757;85;25786;-80
2022/07/03 04:18:17;;;;;;;13.70;4.87;;;;;;;17.88;94.19;101321.23;1675973;85;25321;-80
2022/07/03 04:20:45;;;;;;;7.80;3.92;;;;;;;17.95;93.70;101328.27;1675929;85;25806;-80
2022/07/03 04:23:11;;;;;;;6.83;4.17;;;;;;;18.00;93.53;101324.39;1675730;85;25309;-79
2022/07/03 04:25:38;;;;;;;6.50;4.45;;;;;;;18.03;93.00;101321.75;1675966;84;28314;-80
2022/07/03 04:28:04;;;;;;;10.32;4.42;;;;;;;18.04;93.09;101331.56;1676198;85;25868;-80
2022/07/03 04:30:30;;;;;;;5.40;4.08;;;;;;;18.11;93.02;101324.22;1676180;85;25928;-80
2022/07/03 04:32:57;;;;;;;5.70;4.05;;;;;;;18.18;92.26;101330.41;1678846;85;25810;-81
2022/07/03 04:35:23;;;;;;;6.35;3.30;;;;;;;18.21;91.99;101318.63;1669061;85;25959;-81
2022/07/03 04:37:49;;;;;;;5.00;3.40;;;;;;;18.24;91.38;101311.39;1699355;83;27450;-82
2022/07/03 04:40:16;;;;;;;3.87;2.72;;;;;;;18.27;90.59;101314.19;1702486;83;25880;-81
2022/07/03 04:42:42;;;;;;;4.97;3.40;;;;;;;18.29;90.24;101317.00;1700878;83;25848;-82
2022/07/03 04:45:09;;;;;;;5.65;2.90;;;;;;;18.30;89.99;101317.31;1698878;83;25831;-81
2022/07/03 04:47:35;;;;;;;5.00;3.27;;;;;;;18.37;89.58;101314.52;1697234;83;25926;-81
2022/07/03 04:50:02;;;;;;;9.98;3.12;;;;;;;18.40;89.26;101314.94;1699056;84;27453;-82
2022/07/03 04:52:28;;;;;;;5.92;2.60;;;;;;;18.43;88.72;101318.55;1698295;83;25811;-81
2022/07/03 04:54:54;;;;;;;5.35;2.67;;;;;;;18.45;87.89;101313.76;1697219;82;26048;-82
2022/07/03 04:57:21;;;;;;;6.75;2.90;;;;;;;18.48;88.04;101311.97;1674487;84;25936;-82
2022/07/03 04:59:47;;;;;;;3.83;2.30;;;;;;;18.53;87.69;101306.41;1662104;86;26044;-82
2022/07/03 05:02:14;;;;;;;6.15;2.62;;;;;;;18.57;87.15;101302.19;1686492;83;27450;-82
2022/07/03 05:04:40;;;;;;;6.17;2.42;;;;;;;18.63;87.18;101310.80;1692217;83;26591;-81
2022/07/03 05:07:07;;;;;;;4.53;2.05;;;;;;;18.72;87.59;101312.19;1676141;85;25749;-82
2022/07/03 05:09:33;;;;;;;6.25;2.35;;;;;;;18.82;86.56;101316.61;1675863;85;26495;-81
2022/07/03 05:11:59;;;;;;;4.83;2.08;;;;;;;18.84;86.19;101307.16;1676106;85;25335;-82
2022/07/03 05:14:25;;;;;;;5.10;1.95;;;;;;;18.93;86.13;101307.18;1648935;84;27541;-82
2022/07/03 05:16:52;;;;;;;7.78;2.10;;;;;;;19.01;85.05;101307.44;1647365;87;26562;-81
2022/07/03 05:19:18;;;;;;;3.33;1.70;;;;;;;19.04;83.98;101313.75;1647783;86;25370;-82
2022/07/03 05:21:44;;;;;;;3.70;1.82;;;;;;;19.06;83.01;101315.72;1647024;87;25826;-82
2022/07/03 05:24:11;;;;;;;3.02;1.50;;;;;;;19.10;82.94;101311.48;1647100;87;26152;-82
2022/07/03 05:26:37;;;;;;;2.65;1.72;;;;;;;19.14;81.50;101315.41;1647295;86;27492;-81
2022/07/03 05:29:03;;;;;;;5.17;2.02;;;;;;;19.17;81.91;101306.30;1647085;87;25894;-81
2022/07/03 05:31:30;;;;;;;6.20;2.00;;;;;;;19.24;82.23;101301.64;1647195;86;25864;-81
2022/07/03 05:33:56;;;;;;;3.90;2.15;;;;;;;19.33;81.74;101297.25;1641104;87;25452;-81
2022/07/03 05:36:22;;;;;;;4.42;2.10;;;;;;;19.37;81.41;101295.77;1641674;87;25926;-81
2022/07/03 05:41:33;;;;;;;3.20;1.45;;;;;;;19.46;81.32;101293.05;1641317;85;25942;-81
2022/07/03 05:43:59;;;;;;;4.20;1.52;;;;;;;19.50;81.63;101293.73;1657838;85;25987;-81
2022/07/03 05:46:26;;;;;;;3.45;1.42;;;;;;;19.56;80.36;101295.53;1670210;85;25975;-81
2022/07/03 05:48:52;;;;;;;4.05;1.35;;;;;;;19.62;81.07;101295.97;1670006;85;25332;-81
2022/07/03 05:51:18;;;;;;;3.20;1.40;;;;;;;19.66;79.13;101297.69;1670088;85;27503;-81
2022/07/03 05:53:44;;;;;;;4.08;1.27;;;;;;;19.71;79.87;101306.00;1669831;85;25784;-81
2022/07/03 05:56:11;;;;;;;4.25;1.30;;;;;;;19.80;79.71;101306.80;1669731;85;26761;-81
2022/07/03 05:58:37;;;;;;;3.12;1.20;;;;;;;19.89;76.64;101302.70;1664833;85;25772;-81
2022/07/03 06:01:03;;;;;;;3.90;1.20;;;;;;;19.93;76.34;101307.17;1669844;85;25953;-82
2022/07/03 06:03:29;;;;;;;3.08;1.10;;;;;;;19.98;76.82;101308.12;1669584;85;27616;-82
2022/07/03 06:05:56;;;;;;;2.65;0.90;;;;;;;20.06;76.03;101309.67;1663129;85;25916;-82
2022/07/03 06:08:22;;;;;;;2.80;0.93;;;;;;;20.16;75.57;101309.95;1669800;85;25756;-82
2022/07/03 06:10:48;;;;;;;7.15;1.10;;;;;;;20.23;73.47;101310.70;1667614;85;25946;-80
2022/07/03 06:13:15;;;;;;;3.62;0.90;;;;;;;20.30;74.36;101311.95;1671454;84;26014;-81
2022/07/03 06:15:41;;;;;;;1.55;0.85;;;;;;;20.34;71.71;101305.82;1682634;84;27430;-81
2022/07/03 06:18:07;;;;;;;3.12;0.90;;;;;;;20.38;69.84;101311.09;1684131;84;25904;-81
2022/07/03 06:20:33;;;;;;;4.05;0.88;;;;;;;20.44;69.13;101310.70;1682944;84;25313;-80
2022/07/03 06:23:00;;;;;;;4.35;0.95;;;;;;;20.48;69.57;101310.53;1663481;83;25743;-81
2022/07/03 06:25:26;;;;;;;2.27;0.78;;;;;;;20.51;68.84;101313.60;1677159;84;26528;-81
2022/07/03 06:27:52;;;;;;;4.40;1.10;;;;;;;20.55;68.62;101309.34;1677357;85;27465;-81
2022/07/03 06:30:18;;;;;;;5.15;0.90;;;;;;;20.62;68.60;101304.63;1676164;85;25823;-81
2022/07/03 06:32:45;;;;;;;1.98;0.75;;;;;;;20.68;68.08;101306.92;1670058;85;26593;-81
2022/07/03 06:35:11;;;;;;;3.17;0.80;;;;;;;20.75;67.07;101306.28;1673445;84;26502;-81
2022/07/03 06:37:37;;;;;;;1.98;0.62;;;;;;;20.78;67.02;101301.19;1678007;83;25364;-82
2022/07/03 06:40:06;;;;;;;2.83;0.75;;;;;;;20.87;65.71;101303.58;1680992;85;27505;-82
2022/07/03 06:42:33;;;;;;;4.92;1.05;;;;;;;20.91;66.56;101306.12;1669926;84;25880;-81
2022/07/03 06:44:59;;;;;;;1.77;0.65;;;;;;;21.00;66.40;101295.16;1676925;85;25841;-82
2022/07/03 06:47:26;;;;;;;5.47;0.68;;;;;;;21.03;64.66;101291.45;1672579;85;25436;-81
2022/07/03 06:49:52;;;;;;;4.65;0.90;;;;;;;21.08;65.43;101289.38;1677985;84;25882;-81
2022/07/03 06:52:18;;;;;;;4.80;0.80;;;;;;;21.18;64.49;101290.43;1678635;85;28285;-81
2022/07/03 06:54:44;;;;;;;1.32;0.60;;;;;;;21.25;63.12;101285.69;1656015;85;25844;-81
2022/07/03 06:57:12;;;;;;;1.75;0.68;;;;;;;21.31;63.02;101283.36;1651493;86;25850;-80
2022/07/03 06:59:38;;;;;;;2.80;0.65;;;;;;;21.36;61.83;101273.91;1651413;86;25938;-82
2022/07/03 07:02:06;;;;;;;3.10;0.75;;;;;;;21.39;60.04;101273.96;1651216;86;25682;-82
2022/07/03 07:04:32;;;;;;;2.12;0.78;;;;;;;21.35;60.51;101277.72;1652199;85;27448;-81
2022/07/03 07:06:59;;;;;;;4.87;0.40;;;;;;;21.36;59.26;101277.19;1664922;85;26441;-81
2022/07/03 07:09:25;;;;;;;1.98;0.95;;;;;;;21.35;60.48;101277.72;1666573;85;25631;-81
2022/07/03 07:11:51;;;;;;;1.47;0.60;;;;;;;21.39;60.03;101276.69;1678250;85;25659;-82
2022/07/03 07:14:17;;;;;;;1.42;0.68;;;;;;;21.41;59.36;101270.45;1680023;83;25881;-82
2022/07/03 07:16:46;;;;;;;3.75;0.80;;;;;;;21.41;59.63;101269.09;1678447;85;26419;-82
2022/07/03 07:19:12;;;;;;;3.08;0.70;;;;;;;21.50;58.70;101273.11;1680429;83;25571;-81
2022/07/03 07:21:38;;;;;;;2.40;0.80;;;;;;;21.47;59.25;101273.05;1680665;85;25583;-82
2022/07/03 07:24:05;;;;;;;2.15;1.17;;;;;;;21.55;58.79;101272.38;1679094;84;25863;-81
2022/07/03 07:26:32;;;;;;;1.30;0.70;;;;;;;21.57;59.66;101265.62;1678598;85;25318;-82
2022/07/03 07:28:58;;;;;;;1.60;0.57;;;;;;;21.60;59.00;101262.95;1679985;85;27451;-81
2022/07/03 07:31:26;;;;;;;1.65;0.50;;;;;;;21.63;58.66;101263.28;1680205;85;25553;-82
2022/07/03 07:33:53;;;;;;;3.25;0.93;;;;;;;21.64;57.85;101258.66;1661614;84;26518;-81
2022/07/03 07:36:19;;;;;;;3.62;0.62;;;;;;;21.69;59.58;101257.37;1687068;83;26364;-81
2022/07/03 07:38:45;;;;;;;1.72;0.80;;;;;;;21.75;57.68;101258.59;1694879;83;25839;-82
2022/07/03 07:41:11;;;;;;;1.45;0.50;;;;;;;21.75;57.74;101261.88;1703222;83;27441;-82
2022/07/03 07:43:40;;;;;;;2.67;0.50;;;;;;;21.79;58.20;101258.39;1702592;83;26028;-82
2022/07/03 07:46:06;;;;;;;4.03;0.70;;;;;;;21.87;58.65;101258.05;1706655;83;25768;-81
2022/07/03 07:48:35;;;;;;;1.02;0.50;;;;;;;21.94;57.51;101250.52;1695980;83;25822;-81
2022/07/03 07:51:02;;;;;;;1.80;0.70;;;;;;;22.01;57.54;101253.94;1706901;83;25917;-82
2022/07/03 07:53:28;;;;;;;0.98;0.70;;;;;;;22.07;58.49;101248.02;1707413;83;27459;-82
2022/07/03 07:55:54;;;;;;;1.27;0.68;;;;;;;22.14;57.95;101245.97;1704014;83;25889;-82
2022/07/03 07:58:22;;;;;;;1.50;0.80;;;;;;;22.21;57.61;101246.11;1707353;83;25898;-82
2022/07/03 08:06:18;;;;;;;0.82;0.60;;;;;;;22.26;57.21;101240.72;1702818;83;28736;-81
2022/07/03 08:08:45;;;;;;;1.92;0.75;;;;;;;22.34;57.49;101238.66;1712350;83;25749;-80
2022/07/03 08:11:11;;;;;;;2.75;0.98;;;;;;;22.36;55.74;101237.88;1702871;83;25772;-82
2022/07/03 08:13:37;;;;;;;5.05;0.88;;;;;;;22.39;56.04;101232.73;1696710;83;25773;-82
2022/07/03 08:16:04;;;;;;;1.85;0.60;;;;;;;22.47;56.82;101231.50;1708803;82;26211;-81
2022/07/03 08:18:31;;;;;;;1.00;0.78;;;;;;;22.57;58.00;101229.75;1703280;83;27439;-82
2022/07/03 08:20:57;;;;;;;3.50;0.60;;;;;;;22.64;56.42;101219.52;1711485;83;25960;-82
2022/07/03 08:23:24;;;;;;;1.15;0.57;;;;;;;22.65;55.47;101223.88;1702841;83;25627;-81
2022/07/03 08:25:50;;;;;;;1.82;0.65;;;;;;;22.63;54.93;101227.94;1712884;81;26767;-79
2022/07/03 08:28:16;;;;;;;2.95;0.57;;;;;;;22.59;53.93;101228.16;1703026;83;25888;-79
2022/07/03 08:30:43;;;;;;;2.58;0.65;;;;;;;22.62;55.90;101219.48;1703008;83;28356;-81
2022/07/03 08:33:09;;;;;;;6.87;1.00;;;;;;;22.72;55.29;101220.45;1698440;83;25824;-81
2022/07/03 08:35:35;;;;;;;1.62;0.53;;;;;;;22.80;55.59;101228.20;1684551;82;25302;-81
2022/07/03 08:38:04;;;;;;;1.90;0.57;;;;;;;22.79;52.86;101227.09;1694814;84;26507;-81
2022/07/03 08:40:32;;;;;;;2.72;0.60;;;;;;;22.71;53.97;101225.61;1688942;83;25812;-81
2022/07/03 08:43:03;;;;;;;1.52;0.42;;;;;;;22.73;54.83;101226.74;1676941;84;28298;-80
2022/07/03 08:45:30;;;;;;;1.77;0.75;;;;;;;22.77;54.85;101223.80;1673022;84;25869;-80
2022/07/03 08:47:59;;;;;;;1.72;0.78;;;;;;;22.83;55.23;101217.31;1649571;85;25786;-80
2022/07/03 08:53:35;;;;;;;4.30;0.82;;;;;;;22.93;54.71;101219.64;1713295;80;26792;-81
2022/07/03 08:56:04;;;;;;;1.60;0.50;;;;;;;23.03;55.13;101214.88;1711683;83;27478;-81
2022/07/03 08:58:31;;;;;;;1.85;0.70;;;;;;;23.15;55.23;101205.99;1702303;83;25801;-81
2022/07/03 09:00:59;;;;;;;1.98;0.60;;;;;;;23.21;55.63;101208.23;1677132;82;26049;-79
2022/07/03 09:03:25;;;;;;;1.52;0.60;;;;;;;23.29;54.97;101206.44;1644259;85;26297;-80
2022/07/03 09:05:52;;;;;;;1.32;0.40;;;;;;;23.37;54.66;101209.58;1668917;83;25820;-81
2022/07/03 09:08:18;;;;;;;1.95;0.50;;;;;;;23.41;53.19;101207.98;1664769;84;27488;-80
2022/07/03 09:10:47;;;;;;;1.70;0.57;;;;;;;23.36;52.74;101206.55;1645882;86;26228;-80
2022/07/03 09:13:13;;;;;;;5.95;0.60;;;;;;;23.28;51.95;101210.24;1652413;84;26560;-81
2022/07/03 09:15:39;;;;;;;4.58;0.98;;;;;;;23.30;54.19;101204.81;1670412;84;26242;-81
2022/07/03 09:18:07;;;;;;;1.27;0.60;;;;;;;23.35;53.81;101208.98;1650961;86;25800;-81
2022/07/03 09:20:41;;;;;;;4.50;0.85;;;;;;;23.34;52.55;101206.52;1647431;86;28342;-81
2022/07/03 09:23:22;;;;;;;1.47;0.70;;;;;;;23.36;53.44;101200.24;1665249;84;25883;-80
2022/07/03 09:25:59;;;;;;;2.60;0.70;;;;;;;23.42;53.52;101206.88;1637655;87;26214;-81
2022/07/03 09:28:52;;;;;;;5.00;0.60;;;;;;;23.52;52.54;101201.52;1689957;83;26062;-81
2022/07/03 09:31:25;;;;;;;1.15;0.50;;;;;;;23.49;51.86;101198.48;1693033;83;25799;-80
2022/07/03 09:34:02;;;;;;;3.62;1.15;;;;;;;23.48;51.12;101199.58;1701231;83;27481;-81
2022/07/03 09:36:50;;;;;;;1.42;0.40;;;;;;;23.47;52.49;101193.28;1674150;84;25572;-81
2022/07/03 09:39:29;;;;;;;3.27;0.50;;;;;;;23.55;51.57;101192.81;1685017;83;25534;-81
2022/07/03 09:42:09;;;;;;;0.82;0.40;;;;;;;23.53;51.43;101190.05;1678642;83;25778;-81
2022/07/03 09:44:47;;;;;;;2.60;0.68;;;;;;;23.57;51.31;101181.60;1686113;83;25931;-81
2022/07/03 09:47:18;;;;;;;1.62;0.40;;;;;;;23.59;51.64;101182.16;1705151;83;27481;-81
2022/07/03 09:50:05;;;;;;;2.22;0.53;;;;;;;23.59;50.37;101179.44;1692152;83;26544;-81
2022/07/03 09:52:40;;;;;;;0.70;0.40;;;;;;;23.60;49.75;101178.36;1693025;83;25901;-81
2022/07/03 09:55:20;;;;;;;1.10;0.50;;;;;;;23.58;49.86;101168.23;1699887;83;26647;-80
2022/07/03 09:57:54;;;;;;;2.02;0.50;;;;;;;23.61;50.31;101171.80;1693426;83;26702;-81
2022/07/03 10:00:27;;;;;;;1.30;0.70;;;;;;;23.70;50.89;101166.14;1691606;84;27144;-81
2022/07/03 10:03:06;;;;;;;3.12;0.40;;;;;;;23.86;50.55;101172.59;1687316;84;25877;-81
2022/07/03 10:05:41;;;;;;;2.25;0.42;;;;;;;23.95;50.70;101169.09;1687657;83;25950;-81
2022/07/03 10:08:12;;;;;;;5.08;0.80;;;;;;;23.98;50.91;101168.59;1684068;83;25858;-80
2022/07/03 10:10:45;;;;;;;1.15;0.62;;;;;;;24.09;52.20;101167.62;1691849;83;25957;-81
2022/07/03 10:13:14;;;;;;;1.22;0.40;;;;;;;24.15;51.72;101166.56;1691992;83;27500;-80
2022/07/03 10:15:43;;;;;;;1.60;0.42;;;;;;;24.22;49.88;101160.87;1691851;84;25847;-80
2022/07/03 10:18:12;;;;;;;0.68;0.47;;;;;;;24.20;50.06;101161.67;1682981;84;25361;-80
2022/07/03 10:20:47;;;;;;;3.02;0.60;;;;;;;24.24;50.35;101157.33;1690313;83;26514;-81
2022/07/03 10:23:22;;;;;;;0.93;0.30;;;;;;;24.23;49.18;101158.43;1695519;83;25863;-80
2022/07/03 10:25:49;;;;;;;1.90;0.50;;;;;;;24.21;49.12;101158.67;1680840;83;28568;-81
2022/07/03 10:28:19;;;;;;;2.08;0.55;;;;;;;24.20;49.28;101154.83;1691465;83;25887;-81
2022/07/03 10:30:48;;;;;;;1.87;0.47;;;;;;;24.21;50.03;101149.09;1711646;83;25794;-81
2022/07/03 10:33:15;;;;;;;1.22;0.45;;;;;;;24.30;51.03;101151.62;1698147;83;25853;-81
2022/07/03 10:35:44;;;;;;;1.22;0.50;;;;;;;24.38;50.21;101142.07;1697657;83;25964;-81
2022/07/03 10:38:34;;;;;;;2.50;0.65;;;;;;;24.42;50.87;101143.22;1686993;84;27404;-81
2022/07/03 10:46:46;;;;;;;1.27;0.53;;;;;;;24.58;49.75;101134.52;1686122;83;25854;-82
2022/07/03 10:49:13;;;;;;;2.33;0.70;;;;;;;24.71;49.75;101132.67;1691424;84;25784;-82
2022/07/03 10:51:59;;;;;;;4.78;1.40;;;;;;;24.77;49.05;101126.98;1690106;83;27462;-81
2022/07/03 10:54:33;;;;;;;1.90;0.57;;;;;;;24.80;48.99;101129.20;1690958;80;26503;-80
2022/07/03 10:57:05;;;;;;;0.82;0.42;;;;;;;24.75;47.27;101126.42;1683178;84;25992;-81
2022/07/03 10:59:44;;;;;;;3.50;0.60;;;;;;;24.73;48.74;101120.90;1691742;84;26924;-80
2022/07/03 11:02:40;;;;;;;2.05;0.53;;;;;;;24.76;48.57;101119.88;1685296;84;25967;-81
2022/07/03 11:05:18;;;;;;;1.47;0.40;;;;;;;24.70;47.50;101118.14;1650471;86;26926;-81
2022/07/03 11:07:56;;;;;;;2.35;0.50;;;;;;;24.60;48.34;101115.36;1691093;84;25744;-81
2022/07/03 11:10:28;;;;;;;1.62;0.75;;;;;;;24.54;48.45;101113.70;1686455;84;25849;-80
2022/07/03 11:13:08;;;;;;;4.25;0.60;;;;;;;24.60;49.20;101110.42;1692608;80;25789;-80
2022/07/03 11:15:54;;;;;;;0.57;0.45;;;;;;;24.71;49.36;101106.64;1690305;83;26163;-80
2022/07/03 11:18:31;;;;;;;3.83;0.60;;;;;;;24.77;50.22;101101.48;1671383;84;28070;-80
2022/07/03 11:21:22;;;;;;;1.52;0.40;;;;;;;24.83;50.33;101099.88;1694451;84;26080;-80
2022/07/03 11:24:34;;;;;;;2.27;0.65;;;;;;;24.95;49.39;101096.38;1669419;84;26605;-80
2022/07/03 11:27:17;;;;;;;1.77;0.47;;;;;;;25.06;48.77;101098.59;1636113;85;26194;-81
2022/07/03 11:29:51;;;;;;;1.85;0.50;;;;;;;25.05;47.27;101096.39;1641608;85;25790;-81
2022/07/03 11:32:52;;;;;;;3.35;0.70;;;;;;;24.98;47.48;101088.96;1638384;87;27641;-81
2022/07/03 11:38:29;;;;;;;1.17;0.57;;;;;;;24.98;47.90;101079.91;1702066;82;25808;-80
2022/07/03 11:40:59;;;;;;;1.30;0.40;;;;;;;25.07;49.10;101080.50;1723726;79;25884;-80
2022/07/03 11:52:50;;;;;;;1.75;0.50;;;;;;;25.56;47.08;101075.91;1639683;82;25890;-80
2022/07/03 11:55:16;;;;;;;3.90;0.40;;;;;;;25.58;46.92;101069.60;1637319;85;26626;-80
2022/07/03 11:57:48;;;;;;;2.10;0.47;;;;;;;25.65;47.75;101072.91;1671866;84;25892;-80
2022/07/03 12:00:15;;;;;;;1.02;0.53;;;;;;;25.76;48.41;101067.69;1682305;83;27640;-80
2022/07/03 12:05:59;;;;;;;2.17;0.53;;;;;;;25.99;47.53;101061.63;1719992;81;25907;-80
2022/07/03 12:08:31;;;;;;;2.98;0.40;;;;;;;26.03;47.64;101065.45;1692366;81;26742;-80
2022/07/03 12:11:05;;;;;;;1.02;0.55;;;;;;;26.11;48.30;101065.48;1710620;81;26470;-81
2022/07/03 12:13:33;;;;;;;3.45;0.50;;;;;;;26.14;45.99;101060.80;1746675;81;28332;-80
2022/07/03 12:16:15;;;;;;;1.60;0.57;;;;;;;25.97;44.80;101051.47;1750411;81;25997;-80
2022/07/03 12:18:50;;;;;;;2.35;0.68;;;;;;;25.87;45.44;101052.86;1747751;80;26048;-81